createdAt,value
2017-11-27T00:01:24.889Z,91.39
2017-11-27T00:07:28.394Z,91.05
2017-11-27T00:13:31.873Z,91.08
2017-11-27T00:19:35.466Z,91.21
2017-11-27T00:25:38.986Z,91.30
2017-11-27T00:31:42.457Z,91.35
2017-11-27T00:37:45.954Z,91.66
2017-11-27T00:43:49.455Z,91.83
2017-11-27T00:49:53.757Z,91.79
2017-11-27T00:55:57.263Z,91.71
2017-11-27T01:02:00.724Z,91.99
2017-11-27T01:08:04.241Z,91.89
2017-11-27T01:14:07.747Z,91.32
2017-11-27T01:20:11.236Z,91.06
2017-11-27T01:26:14.745Z,90.66
2017-11-27T01:32:18.228Z,90.50
2017-11-27T01:38:21.713Z,90.29
2017-11-27T01:44:25.286Z,89.98
2017-11-27T01:50:29.592Z,89.20
2017-11-27T01:56:33.090Z,88.81
2017-11-27T02:02:36.581Z,88.09
2017-11-27T02:08:40.113Z,88.09
2017-11-27T02:14:43.651Z,87.53
2017-11-27T02:20:47.149Z,87.65
2017-11-27T02:26:50.725Z,87.68
2017-11-27T02:32:54.206Z,87.62
2017-11-27T02:38:57.685Z,87.58
2017-11-27T02:45:01.329Z,87.95
2017-11-27T02:51:05.615Z,88.56
2017-11-27T02:57:09.288Z,88.71
2017-11-27T03:03:13.563Z,88.50
2017-11-27T03:09:19.703Z,88.45
2017-11-27T03:15:23.174Z,87.95
2017-11-27T03:21:26.679Z,88.10
2017-11-27T03:27:30.189Z,88.25
2017-11-27T03:33:33.720Z,88.05
2017-11-27T03:39:37.194Z,88.64
2017-11-27T03:45:40.671Z,87.55
2017-11-27T03:51:44.162Z,88.06
2017-11-27T03:57:48.408Z,88.24
2017-11-27T04:03:52.686Z,88.42
2017-11-27T04:09:56.179Z,88.93
2017-11-27T04:15:59.634Z,88.65
2017-11-27T04:22:03.219Z,88.89
2017-11-27T04:28:06.715Z,88.75
2017-11-27T04:34:10.974Z,88.48
2017-11-27T04:40:14.466Z,87.61
2017-11-27T04:46:17.938Z,87.14
2017-11-27T04:52:21.427Z,87.05
2017-11-27T04:58:24.935Z,86.65
2017-11-27T05:04:28.422Z,86.78
2017-11-27T05:10:32.005Z,86.01
2017-11-27T05:16:35.499Z,85.84
2017-11-27T05:22:39.781Z,86.10
2017-11-27T05:28:43.295Z,85.29
2017-11-27T05:34:46.799Z,84.95
2017-11-27T05:40:50.279Z,85.84
2017-11-27T05:46:53.794Z,85.66
2017-11-27T05:52:57.410Z,85.87
2017-11-27T05:59:01.732Z,85.43
2017-11-27T06:05:05.239Z,85.94
2017-11-27T06:11:08.785Z,86.05
2017-11-27T06:17:12.241Z,86.97
2017-11-27T06:23:15.742Z,87.13
2017-11-27T06:29:19.227Z,87.45
2017-11-27T06:35:22.759Z,87.30
2017-11-27T06:41:26.229Z,86.85
2017-11-27T06:47:30.483Z,87.06
2017-11-27T06:53:34.727Z,86.83
2017-11-27T06:59:38.298Z,86.68
2017-11-27T07:05:41.770Z,86.87
2017-11-27T07:11:46.046Z,86.23
2017-11-27T07:17:49.543Z,86.89
2017-11-27T07:23:53.116Z,86.52
2017-11-27T07:29:56.622Z,86.24
2017-11-27T07:36:00.118Z,85.78
2017-11-27T07:42:03.602Z,85.30
2017-11-27T07:48:07.096Z,85.29
2017-11-27T07:54:10.575Z,85.37
2017-11-27T08:00:14.065Z,85.29
2017-11-27T08:06:17.597Z,84.28
2017-11-27T08:12:21.860Z,84.21
2017-11-27T08:18:25.343Z,83.10
2017-11-27T08:24:29.626Z,82.56
2017-11-27T08:30:33.120Z,81.37
2017-11-27T08:36:36.688Z,81.46
2017-11-27T08:42:40.169Z,81.12
2017-11-27T08:48:43.694Z,80.73
2017-11-27T08:54:47.784Z,79.38
2017-11-27T09:00:51.256Z,79.03
2017-11-27T09:06:54.724Z,79.75
2017-11-27T09:12:58.185Z,79.19
2017-11-27T09:19:01.665Z,79.51
2017-11-27T09:25:05.154Z,80.00
2017-11-27T09:31:08.650Z,79.49
2017-11-27T09:37:12.132Z,79.28
2017-11-27T09:43:15.595Z,79.33
2017-11-27T09:49:19.882Z,79.45
2017-11-27T09:55:23.406Z,80.10
2017-11-27T10:01:26.880Z,80.49
2017-11-27T10:07:30.368Z,79.52
2017-11-27T10:13:34.756Z,81.41
2017-11-27T10:19:38.319Z,80.80
2017-11-27T10:25:42.597Z,81.83
2017-11-27T10:31:46.118Z,82.54
2017-11-27T10:37:49.564Z,82.76
2017-11-27T10:43:53.053Z,82.25
2017-11-27T10:49:56.802Z,82.69
2017-11-27T10:56:00.250Z,82.96
2017-11-27T11:02:03.733Z,83.51
2017-11-27T11:08:08.011Z,84.40
2017-11-27T11:14:11.528Z,84.79
2017-11-27T11:20:15.164Z,85.24
2017-11-27T11:26:18.618Z,85.72
2017-11-27T11:32:22.158Z,87.32
2017-11-27T11:38:26.617Z,87.12
2017-11-27T11:44:30.120Z,87.48
2017-11-27T11:50:33.617Z,88.08
2017-11-27T11:56:37.856Z,88.38
2017-11-27T12:02:42.116Z,88.25
2017-11-27T12:08:45.595Z,88.51
2017-11-27T12:14:49.107Z,89.00
2017-11-27T12:20:52.573Z,89.09
2017-11-27T12:26:56.044Z,89.63
2017-11-27T12:32:59.537Z,89.97
2017-11-27T12:39:03.822Z,89.39
2017-11-27T12:45:08.181Z,89.74
2017-11-27T12:51:12.475Z,89.93
2017-11-27T12:57:15.939Z,89.84
2017-11-27T13:03:20.200Z,89.59
2017-11-27T13:09:24.114Z,89.58
2017-11-27T13:15:28.378Z,89.81
2017-11-27T13:21:31.832Z,89.58
2017-11-27T13:27:35.321Z,89.73
2017-11-27T13:33:38.800Z,90.00
2017-11-27T13:39:43.033Z,90.28
2017-11-27T13:45:46.622Z,89.35
2017-11-27T13:51:50.098Z,89.83
2017-11-27T13:57:53.576Z,90.21
2017-11-27T14:03:57.038Z,90.12
2017-11-27T14:10:00.541Z,90.41
2017-11-27T14:16:04.814Z,90.34
2017-11-27T14:22:08.551Z,90.20
2017-11-27T14:28:12.900Z,90.04
2017-11-27T14:34:17.302Z,90.27
2017-11-27T14:40:21.594Z,90.44
2017-11-27T14:46:25.042Z,90.18
2017-11-27T14:52:29.391Z,90.25
2017-11-27T14:58:33.602Z,90.39
2017-11-27T15:04:37.353Z,90.15
2017-11-27T15:10:41.628Z,89.52
2017-11-27T15:16:45.651Z,89.81
2017-11-27T15:28:29.515Z,90.74
2017-11-27T15:34:33.069Z,89.90
2017-11-27T15:40:36.575Z,90.31
2017-11-27T15:46:40.057Z,90.83
2017-11-27T15:52:43.555Z,90.33
2017-11-27T15:58:47.823Z,90.70
2017-11-27T16:04:52.815Z,90.76
2017-11-27T16:10:57.118Z,90.33
2017-11-27T16:17:00.666Z,90.60
2017-11-27T16:23:04.267Z,90.77
2017-11-27T16:29:07.755Z,90.73
2017-11-27T16:35:12.013Z,90.90
2017-11-27T16:41:15.550Z,90.84
2017-11-27T16:47:19.061Z,90.88
2017-11-27T16:53:22.739Z,90.55
2017-11-27T16:59:26.305Z,90.52
2017-11-27T17:05:29.808Z,90.17
2017-11-27T17:11:34.124Z,89.78
2017-11-27T17:17:37.621Z,90.03
2017-11-27T17:23:41.870Z,89.82
2017-11-27T17:29:45.348Z,89.65
2017-11-27T17:35:49.611Z,89.37
2017-11-27T17:41:53.323Z,89.24
2017-11-27T17:47:56.833Z,89.24
2017-11-27T17:54:00.401Z,88.73
2017-11-27T18:00:04.747Z,88.78
2017-11-27T18:06:08.271Z,88.22
2017-11-27T18:12:12.021Z,88.21
2017-11-27T18:18:15.516Z,87.83
2017-11-27T18:24:19.063Z,88.23
2017-11-27T18:30:23.249Z,88.17
2017-11-27T18:36:26.800Z,88.37
2017-11-27T18:42:30.422Z,88.65
2017-11-27T18:48:33.941Z,88.76
2017-11-27T18:54:38.277Z,88.85
2017-11-27T19:00:42.058Z,89.16
2017-11-27T19:06:46.311Z,89.55
2017-11-27T19:12:49.886Z,89.38
2017-11-27T19:18:53.779Z,89.43
2017-11-27T19:24:57.293Z,90.11
2017-11-27T19:31:00.822Z,89.93
2017-11-27T19:37:04.405Z,90.10
2017-11-27T19:43:07.897Z,89.84
2017-11-27T19:49:11.418Z,89.84
2017-11-27T19:55:14.938Z,89.91
2017-11-27T20:01:18.515Z,90.27
2017-11-27T20:07:22.392Z,90.48
2017-11-27T20:13:26.300Z,90.55
2017-11-27T20:19:29.826Z,90.74
2017-11-27T20:25:34.282Z,90.43
2017-11-27T20:31:37.778Z,90.00
2017-11-27T20:37:41.348Z,89.58
2017-11-27T20:43:45.508Z,89.77
2017-11-27T20:49:48.984Z,89.69
2017-11-27T20:55:53.662Z,89.97
2017-11-27T21:01:58.025Z,90.26
2017-11-27T21:08:01.531Z,90.52
2017-11-27T21:14:05.187Z,90.60
2017-11-27T21:20:08.676Z,90.62
2017-11-27T21:26:12.224Z,91.11
2017-11-27T21:32:15.797Z,91.65
2017-11-27T21:38:19.393Z,91.97
2017-11-27T21:44:23.120Z,92.22
2017-11-27T21:50:26.865Z,92.15
2017-11-27T21:56:30.382Z,92.25
2017-11-27T22:02:33.884Z,92.51
2017-11-27T22:08:37.427Z,92.58
2017-11-27T22:14:40.947Z,92.71
2017-11-27T22:20:45.987Z,92.83
2017-11-27T22:26:49.518Z,92.18
2017-11-27T22:32:53.286Z,92.04
2017-11-27T22:38:56.931Z,92.16
2017-11-27T22:45:00.544Z,92.27
2017-11-27T22:51:04.030Z,92.16
2017-11-27T22:57:07.529Z,92.16
2017-11-27T23:03:11.010Z,92.43
2017-11-27T23:09:14.537Z,92.47
2017-11-27T23:15:18.016Z,92.52
2017-11-27T23:21:21.890Z,92.53
2017-11-27T23:27:25.746Z,92.58
2017-11-27T23:33:29.340Z,92.41
2017-11-27T23:39:32.849Z,92.51
2017-11-27T23:45:36.354Z,92.21
2017-11-27T23:51:40.009Z,91.47
2017-11-27T23:57:43.561Z,91.23
